sensor_id;sensor_type;location;lat;lon;timestamp;P1;durP1;ratioP1;P2;durP2;ratioP2
37831;SDS011;23671;38.090;-122.570;2022-11-30T00:01:18;1.38;;;0.30;;
37831;SDS011;23671;38.090;-122.570;2022-11-30T00:03:47;3.55;;;0.50;;
37831;SDS011;23671;38.090;-122.570;2022-11-30T00:06:18;6.53;;;0.52;;
37831;SDS011;23671;38.090;-122.570;2022-11-30T00:08:53;5.50;;;1.38;;
37831;SDS011;23671;38.090;-122.570;2022-11-30T00:11:22;3.70;;;0.57;;
37831;SDS011;23671;38.090;-122.570;2022-11-30T00:13:50;2.90;;;0.60;;
37831;SDS011;23671;38.090;-122.570;2022-11-30T00:16:18;5.50;;;0.80;;
37831;SDS011;23671;38.090;-122.570;2022-11-30T00:18:45;5.80;;;0.75;;
37831;SDS011;23671;38.090;-122.570;2022-11-30T00:21:13;3.13;;;0.65;;
37831;SDS011;23671;38.090;-122.570;2022-11-30T00:23:41;1.13;;;0.45;;
37831;SDS011;23671;38.090;-122.570;2022-11-30T00:26:11;2.08;;;0.60;;
37831;SDS011;23671;38.090;-122.570;2022-11-30T00:28:40;1.25;;;0.30;;
37831;SDS011;23671;38.090;-122.570;2022-11-30T00:31:10;2.78;;;0.60;;
37831;SDS011;23671;38.090;-122.570;2022-11-30T00:33:38;5.35;;;0.60;;
37831;SDS011;23671;38.090;-122.570;2022-11-30T00:36:10;0.52;;;0.30;;
37831;SDS011;23671;38.090;-122.570;2022-11-30T00:38:45;1.38;;;0.40;;
37831;SDS011;23671;38.090;-122.570;2022-11-30T00:41:14;1.90;;;0.38;;
37831;SDS011;23671;38.090;-122.570;2022-11-30T00:43:41;1.13;;;0.38;;
37831;SDS011;23671;38.090;-122.570;2022-11-30T00:46:08;1.98;;;0.30;;
37831;SDS011;23671;38.090;-122.570;2022-11-30T00:48:36;0.50;;;0.45;;
37831;SDS011;23671;38.090;-122.570;2022-11-30T00:51:03;0.60;;;0.38;;
37831;SDS011;23671;38.090;-122.570;2022-11-30T00:53:32;2.28;;;0.30;;
37831;SDS011;23671;38.090;-122.570;2022-11-30T00:55:59;2.03;;;0.30;;
37831;SDS011;23671;38.090;-122.570;2022-11-30T00:58:26;0.20;;;0.20;;
37831;SDS011;23671;38.090;-122.570;2022-11-30T01:00:53;1.17;;;0.32;;
37831;SDS011;23671;38.090;-122.570;2022-11-30T01:03:20;0.47;;;0.20;;
37831;SDS011;23671;38.090;-122.570;2022-11-30T01:05:46;1.27;;;0.40;;
37831;SDS011;23671;38.090;-122.570;2022-11-30T01:08:13;1.08;;;0.40;;
37831;SDS011;23671;38.090;-122.570;2022-11-30T01:10:41;1.00;;;0.38;;
37831;SDS011;23671;38.090;-122.570;2022-11-30T01:13:10;0.32;;;0.20;;
37831;SDS011;23671;38.090;-122.570;2022-11-30T01:15:39;0.83;;;0.30;;
37831;SDS011;23671;38.090;-122.570;2022-11-30T01:18:08;1.20;;;0.35;;
37831;SDS011;23671;38.090;-122.570;2022-11-30T01:20:38;0.68;;;0.30;;
37831;SDS011;23671;38.090;-122.570;2022-11-30T01:23:06;0.73;;;0.38;;
37831;SDS011;23671;38.090;-122.570;2022-11-30T01:25:34;1.33;;;0.20;;
37831;SDS011;23671;38.090;-122.570;2022-11-30T01:28:01;1.20;;;0.50;;
37831;SDS011;23671;38.090;-122.570;2022-11-30T01:30:28;1.98;;;0.43;;
37831;SDS011;23671;38.090;-122.570;2022-11-30T01:32:55;0.73;;;0.30;;
37831;SDS011;23671;38.090;-122.570;2022-11-30T01:35:26;0.68;;;0.30;;
37831;SDS011;23671;38.090;-122.570;2022-11-30T01:37:53;0.40;;;0.38;;
37831;SDS011;23671;38.090;-122.570;2022-11-30T01:40:20;0.52;;;0.20;;
37831;SDS011;23671;38.090;-122.570;2022-11-30T01:42:47;1.85;;;0.40;;
37831;SDS011;23671;38.090;-122.570;2022-11-30T01:45:14;0.45;;;0.20;;
37831;SDS011;23671;38.090;-122.570;2022-11-30T01:47:42;1.00;;;0.43;;
37831;SDS011;23671;38.090;-122.570;2022-11-30T01:50:20;0.65;;;0.50;;
37831;SDS011;23671;38.090;-122.570;2022-11-30T01:52:59;1.15;;;0.50;;
37831;SDS011;23671;38.090;-122.570;2022-11-30T01:55:31;1.40;;;0.40;;
37831;SDS011;23671;38.090;-122.570;2022-11-30T02:00:38;0.88;;;0.43;;
37831;SDS011;23671;38.090;-122.570;2022-11-30T02:05:35;0.98;;;0.47;;
37831;SDS011;23671;38.090;-122.570;2022-11-30T02:08:05;0.75;;;0.30;;
37831;SDS011;23671;38.090;-122.570;2022-11-30T02:16:22;2.35;;;0.65;;
37831;SDS011;23671;38.090;-122.570;2022-11-30T02:18:39;0.52;;;0.50;;
37831;SDS011;23671;38.090;-122.570;2022-11-30T02:21:18;0.45;;;0.40;;
37831;SDS011;23671;38.090;-122.570;2022-11-30T02:26:45;1.45;;;0.50;;
37831;SDS011;23671;38.090;-122.570;2022-11-30T02:29:27;1.55;;;0.73;;
37831;SDS011;23671;38.090;-122.570;2022-11-30T02:32:08;0.80;;;0.57;;
37831;SDS011;23671;38.090;-122.570;2022-11-30T02:34:47;1.10;;;0.50;;
37831;SDS011;23671;38.090;-122.570;2022-11-30T02:37:16;0.68;;;0.65;;
37831;SDS011;23671;38.090;-122.570;2022-11-30T02:39:44;0.73;;;0.60;;
37831;SDS011;23671;38.090;-122.570;2022-11-30T02:42:11;2.40;;;0.80;;
37831;SDS011;23671;38.090;-122.570;2022-11-30T02:44:39;1.35;;;0.80;;
37831;SDS011;23671;38.090;-122.570;2022-11-30T02:47:14;2.22;;;0.80;;
37831;SDS011;23671;38.090;-122.570;2022-11-30T02:49:57;1.65;;;0.80;;
37831;SDS011;23671;38.090;-122.570;2022-11-30T02:52:31;1.55;;;0.88;;
37831;SDS011;23671;38.090;-122.570;2022-11-30T02:55:00;1.88;;;0.95;;
37831;SDS011;23671;38.090;-122.570;2022-11-30T02:57:33;2.00;;;0.73;;
37831;SDS011;23671;38.090;-122.570;2022-11-30T03:00:02;0.60;;;0.60;;
37831;SDS011;23671;38.090;-122.570;2022-11-30T03:02:31;0.57;;;0.57;;
37831;SDS011;23671;38.090;-122.570;2022-11-30T03:04:59;1.25;;;0.85;;
37831;SDS011;23671;38.090;-122.570;2022-11-30T03:07:26;1.27;;;0.88;;
37831;SDS011;23671;38.090;-122.570;2022-11-30T03:09:53;1.30;;;0.80;;
37831;SDS011;23671;38.090;-122.570;2022-11-30T03:12:20;3.83;;;1.00;;
37831;SDS011;23671;38.090;-122.570;2022-11-30T03:14:47;1.00;;;0.70;;
37831;SDS011;23671;38.090;-122.570;2022-11-30T03:17:14;1.15;;;1.00;;
37831;SDS011;23671;38.090;-122.570;2022-11-30T03:19:41;1.70;;;0.80;;
37831;SDS011;23671;38.090;-122.570;2022-11-30T03:22:08;1.58;;;0.77;;
37831;SDS011;23671;38.090;-122.570;2022-11-30T03:24:35;1.80;;;1.00;;
37831;SDS011;23671;38.090;-122.570;2022-11-30T03:27:02;0.60;;;0.52;;
37831;SDS011;23671;38.090;-122.570;2022-11-30T03:29:29;0.70;;;0.70;;
37831;SDS011;23671;38.090;-122.570;2022-11-30T03:31:57;2.40;;;0.68;;
37831;SDS011;23671;38.090;-122.570;2022-11-30T03:34:24;0.65;;;0.60;;
37831;SDS011;23671;38.090;-122.570;2022-11-30T03:36:52;0.73;;;0.73;;
37831;SDS011;23671;38.090;-122.570;2022-11-30T03:39:19;1.08;;;0.80;;
37831;SDS011;23671;38.090;-122.570;2022-11-30T03:41:46;2.08;;;1.08;;
37831;SDS011;23671;38.090;-122.570;2022-11-30T03:44:13;0.77;;;0.70;;
37831;SDS011;23671;38.090;-122.570;2022-11-30T03:46:40;1.10;;;0.90;;
37831;SDS011;23671;38.090;-122.570;2022-11-30T03:49:07;1.35;;;0.70;;
37831;SDS011;23671;38.090;-122.570;2022-11-30T03:51:34;0.85;;;0.65;;
37831;SDS011;23671;38.090;-122.570;2022-11-30T03:54:02;1.48;;;1.15;;
37831;SDS011;23671;38.090;-122.570;2022-11-30T03:56:29;1.88;;;0.90;;
37831;SDS011;23671;38.090;-122.570;2022-11-30T03:58:56;1.20;;;0.73;;
37831;SDS011;23671;38.090;-122.570;2022-11-30T04:01:23;1.23;;;0.80;;
37831;SDS011;23671;38.090;-122.570;2022-11-30T04:03:51;1.60;;;0.90;;
37831;SDS011;23671;38.090;-122.570;2022-11-30T04:06:19;1.00;;;0.60;;
37831;SDS011;23671;38.090;-122.570;2022-11-30T04:08:46;1.58;;;1.20;;
37831;SDS011;23671;38.090;-122.570;2022-11-30T04:11:13;1.30;;;1.00;;
37831;SDS011;23671;38.090;-122.570;2022-11-30T04:13:41;3.22;;;0.95;;
37831;SDS011;23671;38.090;-122.570;2022-11-30T04:16:09;1.17;;;0.98;;
37831;SDS011;23671;38.090;-122.570;2022-11-30T04:18:37;1.20;;;1.10;;
37831;SDS011;23671;38.090;-122.570;2022-11-30T04:21:04;1.63;;;1.20;;
37831;SDS011;23671;38.090;-122.570;2022-11-30T04:23:34;1.45;;;1.13;;
37831;SDS011;23671;38.090;-122.570;2022-11-30T04:28:33;1.30;;;0.95;;
37831;SDS011;23671;38.090;-122.570;2022-11-30T04:31:00;2.55;;;1.33;;
37831;SDS011;23671;38.090;-122.570;2022-11-30T04:33:27;2.38;;;1.33;;
37831;SDS011;23671;38.090;-122.570;2022-11-30T04:35:55;1.58;;;1.30;;
37831;SDS011;23671;38.090;-122.570;2022-11-30T04:38:25;2.20;;;1.17;;
37831;SDS011;23671;38.090;-122.570;2022-11-30T04:40:52;2.47;;;1.30;;
37831;SDS011;23671;38.090;-122.570;2022-11-30T04:43:20;3.45;;;1.45;;
37831;SDS011;23671;38.090;-122.570;2022-11-30T04:45:48;1.88;;;1.35;;
37831;SDS011;23671;38.090;-122.570;2022-11-30T04:48:16;1.33;;;1.10;;
37831;SDS011;23671;38.090;-122.570;2022-11-30T04:50:43;1.77;;;1.23;;
37831;SDS011;23671;38.090;-122.570;2022-11-30T04:53:10;2.22;;;1.40;;
37831;SDS011;23671;38.090;-122.570;2022-11-30T04:55:40;1.58;;;1.20;;
37831;SDS011;23671;38.090;-122.570;2022-11-30T04:58:07;2.25;;;1.35;;
37831;SDS011;23671;38.090;-122.570;2022-11-30T05:00:34;3.65;;;1.40;;
37831;SDS011;23671;38.090;-122.570;2022-11-30T05:03:02;2.22;;;1.60;;
37831;SDS011;23671;38.090;-122.570;2022-11-30T05:05:29;3.83;;;1.42;;
37831;SDS011;23671;38.090;-122.570;2022-11-30T05:07:56;2.53;;;1.50;;
37831;SDS011;23671;38.090;-122.570;2022-11-30T05:10:24;2.65;;;1.35;;
37831;SDS011;23671;38.090;-122.570;2022-11-30T05:12:52;2.00;;;1.35;;
37831;SDS011;23671;38.090;-122.570;2022-11-30T05:15:19;3.25;;;1.67;;
37831;SDS011;23671;38.090;-122.570;2022-11-30T05:17:46;2.63;;;1.80;;
37831;SDS011;23671;38.090;-122.570;2022-11-30T05:20:13;1.98;;;1.52;;
37831;SDS011;23671;38.090;-122.570;2022-11-30T05:22:40;2.38;;;1.65;;
37831;SDS011;23671;38.090;-122.570;2022-11-30T05:25:07;1.77;;;1.60;;
37831;SDS011;23671;38.090;-122.570;2022-11-30T05:27:35;2.50;;;1.20;;
37831;SDS011;23671;38.090;-122.570;2022-11-30T05:30:03;2.70;;;1.65;;
37831;SDS011;23671;38.090;-122.570;2022-11-30T05:32:30;2.55;;;1.30;;
37831;SDS011;23671;38.090;-122.570;2022-11-30T05:34:57;2.67;;;1.67;;
37831;SDS011;23671;38.090;-122.570;2022-11-30T05:37:24;2.25;;;1.80;;
37831;SDS011;23671;38.090;-122.570;2022-11-30T05:39:51;1.70;;;1.48;;
37831;SDS011;23671;38.090;-122.570;2022-11-30T05:42:18;3.20;;;1.83;;
37831;SDS011;23671;38.090;-122.570;2022-11-30T05:44:45;1.92;;;1.60;;
37831;SDS011;23671;38.090;-122.570;2022-11-30T05:47:12;3.00;;;1.60;;
37831;SDS011;23671;38.090;-122.570;2022-11-30T05:49:39;1.85;;;1.48;;
37831;SDS011;23671;38.090;-122.570;2022-11-30T05:52:06;2.33;;;1.60;;
37831;SDS011;23671;38.090;-122.570;2022-11-30T05:54:33;2.53;;;1.75;;
37831;SDS011;23671;38.090;-122.570;2022-11-30T05:57:00;2.10;;;1.52;;
37831;SDS011;23671;38.090;-122.570;2022-11-30T05:59:27;1.77;;;1.40;;
37831;SDS011;23671;38.090;-122.570;2022-11-30T06:01:54;2.10;;;1.70;;
37831;SDS011;23671;38.090;-122.570;2022-11-30T06:04:21;2.67;;;1.60;;
37831;SDS011;23671;38.090;-122.570;2022-11-30T06:06:48;3.78;;;1.55;;
37831;SDS011;23671;38.090;-122.570;2022-11-30T06:09:20;3.38;;;1.60;;
37831;SDS011;23671;38.090;-122.570;2022-11-30T06:11:47;2.72;;;1.80;;
37831;SDS011;23671;38.090;-122.570;2022-11-30T06:14:14;3.05;;;1.90;;
37831;SDS011;23671;38.090;-122.570;2022-11-30T06:16:41;2.78;;;1.70;;
37831;SDS011;23671;38.090;-122.570;2022-11-30T06:19:08;2.38;;;1.67;;
37831;SDS011;23671;38.090;-122.570;2022-11-30T06:21:35;2.17;;;1.83;;
37831;SDS011;23671;38.090;-122.570;2022-11-30T06:24:02;3.28;;;1.67;;
37831;SDS011;23671;38.090;-122.570;2022-11-30T06:26:29;2.15;;;1.70;;
37831;SDS011;23671;38.090;-122.570;2022-11-30T06:28:56;2.25;;;1.52;;
37831;SDS011;23671;38.090;-122.570;2022-11-30T06:31:23;5.13;;;1.83;;
37831;SDS011;23671;38.090;-122.570;2022-11-30T06:33:50;3.72;;;1.70;;
37831;SDS011;23671;38.090;-122.570;2022-11-30T06:36:21;2.15;;;1.58;;
37831;SDS011;23671;38.090;-122.570;2022-11-30T06:38:48;3.22;;;1.90;;
37831;SDS011;23671;38.090;-122.570;2022-11-30T06:41:15;3.63;;;1.90;;
37831;SDS011;23671;38.090;-122.570;2022-11-30T06:43:43;3.78;;;1.70;;
37831;SDS011;23671;38.090;-122.570;2022-11-30T06:46:10;3.03;;;1.80;;
37831;SDS011;23671;38.090;-122.570;2022-11-30T06:48:37;3.72;;;2.05;;
37831;SDS011;23671;38.090;-122.570;2022-11-30T06:51:04;2.65;;;1.90;;
37831;SDS011;23671;38.090;-122.570;2022-11-30T06:53:35;3.13;;;2.00;;
37831;SDS011;23671;38.090;-122.570;2022-11-30T06:56:06;4.00;;;2.53;;
37831;SDS011;23671;38.090;-122.570;2022-11-30T06:58:34;5.18;;;2.80;;
37831;SDS011;23671;38.090;-122.570;2022-11-30T07:01:05;4.35;;;2.40;;
37831;SDS011;23671;38.090;-122.570;2022-11-30T07:03:33;6.43;;;2.70;;
37831;SDS011;23671;38.090;-122.570;2022-11-30T07:06:04;4.40;;;2.72;;
37831;SDS011;23671;38.090;-122.570;2022-11-30T07:08:36;3.30;;;2.38;;
37831;SDS011;23671;38.090;-122.570;2022-11-30T07:11:04;4.88;;;2.45;;
37831;SDS011;23671;38.090;-122.570;2022-11-30T07:13:32;4.63;;;2.92;;
37831;SDS011;23671;38.090;-122.570;2022-11-30T07:16:01;3.80;;;2.65;;
37831;SDS011;23671;38.090;-122.570;2022-11-30T07:18:29;3.75;;;2.60;;
37831;SDS011;23671;38.090;-122.570;2022-11-30T07:20:57;5.45;;;2.80;;
37831;SDS011;23671;38.090;-122.570;2022-11-30T07:23:25;5.65;;;3.03;;
37831;SDS011;23671;38.090;-122.570;2022-11-30T07:26:11;4.90;;;2.80;;
37831;SDS011;23671;38.090;-122.570;2022-11-30T07:28:39;4.50;;;2.45;;
37831;SDS011;23671;38.090;-122.570;2022-11-30T07:31:19;4.00;;;2.58;;
37831;SDS011;23671;38.090;-122.570;2022-11-30T07:33:48;6.65;;;3.00;;
37831;SDS011;23671;38.090;-122.570;2022-11-30T07:36:16;5.55;;;3.22;;
37831;SDS011;23671;38.090;-122.570;2022-11-30T07:38:45;4.37;;;2.70;;
37831;SDS011;23671;38.090;-122.570;2022-11-30T07:41:12;4.25;;;2.50;;
37831;SDS011;23671;38.090;-122.570;2022-11-30T07:43:40;4.32;;;2.70;;
37831;SDS011;23671;38.090;-122.570;2022-11-30T07:46:08;4.47;;;2.47;;
37831;SDS011;23671;38.090;-122.570;2022-11-30T07:48:37;4.50;;;2.55;;
37831;SDS011;23671;38.090;-122.570;2022-11-30T07:51:04;3.47;;;2.50;;
37831;SDS011;23671;38.090;-122.570;2022-11-30T07:53:34;4.10;;;2.40;;
37831;SDS011;23671;38.090;-122.570;2022-11-30T07:56:05;3.70;;;2.33;;
37831;SDS011;23671;38.090;-122.570;2022-11-30T07:58:35;5.07;;;2.13;;
37831;SDS011;23671;38.090;-122.570;2022-11-30T08:01:06;4.80;;;2.72;;
37831;SDS011;23671;38.090;-122.570;2022-11-30T08:03:35;3.80;;;2.40;;
37831;SDS011;23671;38.090;-122.570;2022-11-30T08:06:03;3.95;;;2.38;;
37831;SDS011;23671;38.090;-122.570;2022-11-30T08:08:33;4.45;;;2.67;;
37831;SDS011;23671;38.090;-122.570;2022-11-30T08:13:30;4.68;;;2.50;;
37831;SDS011;23671;38.090;-122.570;2022-11-30T08:16:00;3.90;;;2.47;;
37831;SDS011;23671;38.090;-122.570;2022-11-30T08:18:33;5.32;;;2.33;;
37831;SDS011;23671;38.090;-122.570;2022-11-30T08:21:02;5.45;;;3.15;;
37831;SDS011;23671;38.090;-122.570;2022-11-30T08:26:05;3.92;;;2.40;;
37831;SDS011;23671;38.090;-122.570;2022-11-30T08:28:40;5.55;;;2.75;;
37831;SDS011;23671;38.090;-122.570;2022-11-30T08:31:09;4.33;;;2.30;;
37831;SDS011;23671;38.090;-122.570;2022-11-30T08:33:38;3.55;;;2.22;;
37831;SDS011;23671;38.090;-122.570;2022-11-30T08:36:18;4.35;;;2.55;;
37831;SDS011;23671;38.090;-122.570;2022-11-30T08:38:47;4.57;;;2.28;;
37831;SDS011;23671;38.090;-122.570;2022-11-30T08:41:15;4.65;;;2.45;;
37831;SDS011;23671;38.090;-122.570;2022-11-30T08:43:45;3.97;;;2.25;;
37831;SDS011;23671;38.090;-122.570;2022-11-30T08:46:14;3.17;;;2.33;;
37831;SDS011;23671;38.090;-122.570;2022-11-30T08:48:43;3.97;;;2.22;;
37831;SDS011;23671;38.090;-122.570;2022-11-30T08:51:11;4.13;;;2.13;;
37831;SDS011;23671;38.090;-122.570;2022-11-30T08:53:39;3.78;;;2.25;;
37831;SDS011;23671;38.090;-122.570;2022-11-30T08:56:11;3.35;;;2.10;;
37831;SDS011;23671;38.090;-122.570;2022-11-30T08:58:43;2.53;;;2.00;;
37831;SDS011;23671;38.090;-122.570;2022-11-30T09:03:46;2.55;;;2.03;;
37831;SDS011;23671;38.090;-122.570;2022-11-30T09:06:16;7.47;;;2.03;;
37831;SDS011;23671;38.090;-122.570;2022-11-30T09:08:45;2.38;;;1.65;;
37831;SDS011;23671;38.090;-122.570;2022-11-30T09:11:16;3.40;;;1.90;;
37831;SDS011;23671;38.090;-122.570;2022-11-30T09:13:43;2.83;;;1.70;;
37831;SDS011;23671;38.090;-122.570;2022-11-30T09:16:11;3.30;;;1.60;;
37831;SDS011;23671;38.090;-122.570;2022-11-30T09:18:39;4.63;;;2.20;;
37831;SDS011;23671;38.090;-122.570;2022-11-30T09:21:08;2.92;;;1.75;;
37831;SDS011;23671;38.090;-122.570;2022-11-30T09:23:37;3.85;;;2.25;;
37831;SDS011;23671;38.090;-122.570;2022-11-30T09:26:11;5.13;;;1.95;;
37831;SDS011;23671;38.090;-122.570;2022-11-30T09:28:41;3.13;;;2.00;;
37831;SDS011;23671;38.090;-122.570;2022-11-30T09:31:14;4.45;;;2.40;;
37831;SDS011;23671;38.090;-122.570;2022-11-30T09:33:42;3.15;;;1.95;;
37831;SDS011;23671;38.090;-122.570;2022-11-30T09:36:11;3.28;;;2.10;;
37831;SDS011;23671;38.090;-122.570;2022-11-30T09:38:41;2.88;;;1.92;;
37831;SDS011;23671;38.090;-122.570;2022-11-30T09:46:52;4.70;;;2.25;;
37831;SDS011;23671;38.090;-122.570;2022-11-30T09:49:23;3.13;;;1.85;;
37831;SDS011;23671;38.090;-122.570;2022-11-30T09:51:57;3.45;;;1.88;;
37831;SDS011;23671;38.090;-122.570;2022-11-30T09:54:38;3.15;;;1.83;;
37831;SDS011;23671;38.090;-122.570;2022-11-30T09:57:27;5.38;;;1.83;;
37831;SDS011;23671;38.090;-122.570;2022-11-30T10:00:22;4.03;;;2.00;;
37831;SDS011;23671;38.090;-122.570;2022-11-30T10:02:49;3.90;;;1.77;;
37831;SDS011;23671;38.090;-122.570;2022-11-30T10:05:19;3.10;;;1.70;;
37831;SDS011;23671;38.090;-122.570;2022-11-30T10:22:10;2.60;;;1.55;;
37831;SDS011;23671;38.090;-122.570;2022-11-30T10:30:12;3.92;;;1.67;;
37831;SDS011;23671;38.090;-122.570;2022-11-30T10:32:56;2.90;;;1.80;;
37831;SDS011;23671;38.090;-122.570;2022-11-30T10:35:42;3.72;;;1.73;;
37831;SDS011;23671;38.090;-122.570;2022-11-30T10:43:50;1.92;;;1.30;;
37831;SDS011;23671;38.090;-122.570;2022-11-30T10:46:28;5.25;;;1.40;;
37831;SDS011;23671;38.090;-122.570;2022-11-30T10:49:05;2.03;;;1.30;;
37831;SDS011;23671;38.090;-122.570;2022-11-30T10:54:17;1.92;;;1.17;;
37831;SDS011;23671;38.090;-122.570;2022-11-30T10:56:47;2.45;;;1.10;;
37831;SDS011;23671;38.090;-122.570;2022-11-30T10:59:24;2.15;;;1.10;;
37831;SDS011;23671;38.090;-122.570;2022-11-30T11:05:08;1.85;;;1.10;;
37831;SDS011;23671;38.090;-122.570;2022-11-30T11:10:48;2.47;;;1.35;;
37831;SDS011;23671;38.090;-122.570;2022-11-30T11:13:35;2.70;;;1.25;;
37831;SDS011;23671;38.090;-122.570;2022-11-30T11:16:05;1.65;;;1.10;;
37831;SDS011;23671;38.090;-122.570;2022-11-30T11:18:34;2.83;;;1.30;;
37831;SDS011;23671;38.090;-122.570;2022-11-30T11:21:16;2.92;;;1.30;;
37831;SDS011;23671;38.090;-122.570;2022-11-30T11:23:45;3.15;;;1.27;;
37831;SDS011;23671;38.090;-122.570;2022-11-30T11:26:18;2.38;;;1.20;;
37831;SDS011;23671;38.090;-122.570;2022-11-30T11:28:49;1.23;;;0.95;;
37831;SDS011;23671;38.090;-122.570;2022-11-30T11:33:53;3.70;;;1.33;;
37831;SDS011;23671;38.090;-122.570;2022-11-30T11:36:30;2.65;;;1.30;;
37831;SDS011;23671;38.090;-122.570;2022-11-30T11:38:58;3.95;;;1.40;;
37831;SDS011;23671;38.090;-122.570;2022-11-30T11:41:33;2.70;;;1.08;;
37831;SDS011;23671;38.090;-122.570;2022-11-30T11:46:52;2.50;;;1.30;;
37831;SDS011;23671;38.090;-122.570;2022-11-30T11:49:42;1.92;;;1.02;;
37831;SDS011;23671;38.090;-122.570;2022-11-30T11:57:16;2.65;;;1.35;;
37831;SDS011;23671;38.090;-122.570;2022-11-30T12:02:32;3.15;;;1.45;;
37831;SDS011;23671;38.090;-122.570;2022-11-30T12:05:22;2.10;;;1.30;;
37831;SDS011;23671;38.090;-122.570;2022-11-30T12:18:49;3.60;;;1.40;;
37831;SDS011;23671;38.090;-122.570;2022-11-30T12:32:39;2.65;;;1.45;;
37831;SDS011;23671;38.090;-122.570;2022-11-30T12:35:45;3.05;;;1.45;;
37831;SDS011;23671;38.090;-122.570;2022-11-30T12:52:25;1.13;;;0.70;;
37831;SDS011;23671;38.090;-122.570;2022-11-30T13:12:44;2.13;;;1.00;;
37831;SDS011;23671;38.090;-122.570;2022-11-30T13:15:46;2.55;;;1.02;;
37831;SDS011;23671;38.090;-122.570;2022-11-30T13:18:08;2.35;;;1.13;;
37831;SDS011;23671;38.090;-122.570;2022-11-30T13:31:26;0.98;;;0.80;;
37831;SDS011;23671;38.090;-122.570;2022-11-30T13:33:58;2.83;;;1.15;;
37831;SDS011;23671;38.090;-122.570;2022-11-30T13:41:46;2.07;;;0.97;;
37831;SDS011;23671;38.090;-122.570;2022-11-30T13:44:32;1.40;;;1.00;;
37831;SDS011;23671;38.090;-122.570;2022-11-30T13:47:16;1.83;;;1.20;;
37831;SDS011;23671;38.090;-122.570;2022-11-30T13:49:44;2.58;;;1.17;;
37831;SDS011;23671;38.090;-122.570;2022-11-30T13:52:24;1.17;;;1.00;;
37831;SDS011;23671;38.090;-122.570;2022-11-30T13:58:08;2.22;;;1.02;;
37831;SDS011;23671;38.090;-122.570;2022-11-30T14:05:47;1.35;;;1.10;;
37831;SDS011;23671;38.090;-122.570;2022-11-30T14:08:35;2.22;;;1.05;;
37831;SDS011;23671;38.090;-122.570;2022-11-30T14:13:51;1.90;;;1.40;;
37831;SDS011;23671;38.090;-122.570;2022-11-30T14:16:24;1.30;;;1.00;;
37831;SDS011;23671;38.090;-122.570;2022-11-30T14:18:54;1.33;;;0.93;;
37831;SDS011;23671;38.090;-122.570;2022-11-30T14:21:28;3.75;;;1.20;;
37831;SDS011;23671;38.090;-122.570;2022-11-30T14:24:00;1.75;;;1.25;;
37831;SDS011;23671;38.090;-122.570;2022-11-30T14:26:53;1.90;;;1.20;;
37831;SDS011;23671;38.090;-122.570;2022-11-30T14:29:24;1.63;;;1.17;;
37831;SDS011;23671;38.090;-122.570;2022-11-30T14:31:57;1.63;;;1.10;;
37831;SDS011;23671;38.090;-122.570;2022-11-30T14:34:36;3.03;;;0.93;;
37831;SDS011;23671;38.090;-122.570;2022-11-30T14:37:26;1.33;;;1.08;;
37831;SDS011;23671;38.090;-122.570;2022-11-30T14:40:00;2.00;;;1.10;;
37831;SDS011;23671;38.090;-122.570;2022-11-30T14:42:31;1.70;;;1.23;;
37831;SDS011;23671;38.090;-122.570;2022-11-30T14:44:59;1.13;;;0.90;;
37831;SDS011;23671;38.090;-122.570;2022-11-30T14:47:28;2.67;;;1.23;;
37831;SDS011;23671;38.090;-122.570;2022-11-30T14:49:57;3.78;;;1.38;;
37831;SDS011;23671;38.090;-122.570;2022-11-30T14:52:50;1.98;;;1.20;;
37831;SDS011;23671;38.090;-122.570;2022-11-30T15:01:17;3.15;;;1.10;;
37831;SDS011;23671;38.090;-122.570;2022-11-30T15:06:15;1.67;;;1.00;;
37831;SDS011;23671;38.090;-122.570;2022-11-30T15:08:49;2.67;;;0.98;;
37831;SDS011;23671;38.090;-122.570;2022-11-30T15:11:19;1.30;;;0.98;;
37831;SDS011;23671;38.090;-122.570;2022-11-30T15:13:49;4.20;;;0.93;;
37831;SDS011;23671;38.090;-122.570;2022-11-30T15:16:19;1.42;;;0.95;;
37831;SDS011;23671;38.090;-122.570;2022-11-30T15:18:47;1.92;;;0.98;;
37831;SDS011;23671;38.090;-122.570;2022-11-30T15:21:19;1.50;;;1.10;;
37831;SDS011;23671;38.090;-122.570;2022-11-30T15:23:48;1.88;;;1.00;;
37831;SDS011;23671;38.090;-122.570;2022-11-30T15:31:55;1.42;;;0.85;;
37831;SDS011;23671;38.090;-122.570;2022-11-30T15:34:34;1.85;;;0.93;;
37831;SDS011;23671;38.090;-122.570;2022-11-30T15:37:06;1.67;;;1.10;;
37831;SDS011;23671;38.090;-122.570;2022-11-30T15:39:33;2.67;;;0.95;;
37831;SDS011;23671;38.090;-122.570;2022-11-30T15:42:02;1.73;;;0.88;;
37831;SDS011;23671;38.090;-122.570;2022-11-30T15:47:04;2.00;;;1.15;;
37831;SDS011;23671;38.090;-122.570;2022-11-30T15:49:53;2.35;;;1.02;;
37831;SDS011;23671;38.090;-122.570;2022-11-30T15:52:24;2.13;;;1.00;;
37831;SDS011;23671;38.090;-122.570;2022-11-30T15:57:26;3.75;;;0.90;;
37831;SDS011;23671;38.090;-122.570;2022-11-30T16:00:26;1.70;;;0.88;;
37831;SDS011;23671;38.090;-122.570;2022-11-30T16:03:07;1.35;;;0.90;;
37831;SDS011;23671;38.090;-122.570;2022-11-30T16:05:37;1.88;;;1.02;;
37831;SDS011;23671;38.090;-122.570;2022-11-30T16:08:12;1.67;;;1.00;;
37831;SDS011;23671;38.090;-122.570;2022-11-30T16:10:41;2.65;;;0.98;;
37831;SDS011;23671;38.090;-122.570;2022-11-30T16:13:15;2.30;;;0.90;;
37831;SDS011;23671;38.090;-122.570;2022-11-30T16:15:45;1.55;;;0.90;;
37831;SDS011;23671;38.090;-122.570;2022-11-30T16:18:14;1.50;;;0.90;;
37831;SDS011;23671;38.090;-122.570;2022-11-30T16:20:50;2.13;;;0.93;;
37831;SDS011;23671;38.090;-122.570;2022-11-30T16:23:22;1.77;;;0.73;;
37831;SDS011;23671;38.090;-122.570;2022-11-30T16:25:50;0.75;;;0.70;;
37831;SDS011;23671;38.090;-122.570;2022-11-30T16:28:18;1.02;;;0.70;;
37831;SDS011;23671;38.090;-122.570;2022-11-30T16:30:46;1.75;;;1.08;;
37831;SDS011;23671;38.090;-122.570;2022-11-30T16:33:16;6.18;;;0.75;;
37831;SDS011;23671;38.090;-122.570;2022-11-30T16:35:57;1.70;;;0.93;;
37831;SDS011;23671;38.090;-122.570;2022-11-30T16:38:28;2.42;;;1.00;;
37831;SDS011;23671;38.090;-122.570;2022-11-30T16:40:57;2.35;;;0.88;;
37831;SDS011;23671;38.090;-122.570;2022-11-30T16:43:55;1.20;;;0.63;;
37831;SDS011;23671;38.090;-122.570;2022-11-30T16:46:24;5.30;;;1.05;;
37831;SDS011;23671;38.090;-122.570;2022-11-30T16:48:52;2.58;;;1.00;;
37831;SDS011;23671;38.090;-122.570;2022-11-30T16:51:21;2.05;;;0.80;;
37831;SDS011;23671;38.090;-122.570;2022-11-30T16:53:53;1.92;;;0.90;;
37831;SDS011;23671;38.090;-122.570;2022-11-30T16:56:21;2.47;;;0.80;;
37831;SDS011;23671;38.090;-122.570;2022-11-30T16:58:48;3.13;;;1.13;;
37831;SDS011;23671;38.090;-122.570;2022-11-30T17:01:29;0.60;;;0.50;;
37831;SDS011;23671;38.090;-122.570;2022-11-30T17:03:58;0.90;;;0.80;;
37831;SDS011;23671;38.090;-122.570;2022-11-30T17:06:30;1.35;;;0.80;;
37831;SDS011;23671;38.090;-122.570;2022-11-30T17:08:57;1.05;;;0.88;;
37831;SDS011;23671;38.090;-122.570;2022-11-30T17:11:28;1.30;;;0.95;;
37831;SDS011;23671;38.090;-122.570;2022-11-30T17:13:58;1.25;;;0.88;;
37831;SDS011;23671;38.090;-122.570;2022-11-30T17:16:25;1.95;;;1.10;;
37831;SDS011;23671;38.090;-122.570;2022-11-30T17:18:52;2.63;;;0.88;;
37831;SDS011;23671;38.090;-122.570;2022-11-30T17:21:21;1.42;;;0.80;;
37831;SDS011;23671;38.090;-122.570;2022-11-30T17:23:52;1.98;;;0.90;;
37831;SDS011;23671;38.090;-122.570;2022-11-30T17:26:19;2.92;;;0.65;;